Time;durP1;ratioP1;P1;durP2;ratioP2;P2;SDS_P1;SDS_P2;PMS_P1;PMS_P2;Temp;Humidity;BMP_temperature;BMP_pressure;BME280_temperature;BME280_humidity;BME280_pressure;Samples;Min_cycle;Max_cycle;Signal;HPM_P1;HPM_P2
2021/06/15 06:47:56;;;;;;;14.32;2.28;;;;;;;;;;7152097;27;20199;-78
2021/06/15 06:51:17;;;;;;;9.85;2.22;;;;;;;;;;7130603;27;20046;-78
2021/06/15 06:54:37;;;;;;;10.35;2.22;;;;;;;;;;7134154;27;20502;-77
2021/06/15 06:58:00;;;;;;;10.75;2.08;;;;;;;;;;7134665;27;20042;-76
2021/06/15 07:01:21;;;;;;;9.18;2.75;;;;;;;;;;7133397;27;20038;-82
2021/06/15 07:04:41;;;;;;;5.05;2.08;;;;;;;;;;7132460;27;20076;-77
2021/06/15 07:08:02;;;;;;;6.75;2.38;;;;;;;;;;7133068;27;20380;-77
2021/06/15 07:11:22;;;;;;;6.30;2.33;;;;;;;;;;7135362;27;20069;-78
2021/06/15 07:14:43;;;;;;;8.77;3.10;;;;;;;;;;7133650;27;20166;-77
2021/06/15 07:18:03;;;;;;;7.38;2.47;;;;;;;;;;7134048;27;20484;-78
2021/06/15 07:21:24;;;;;;;9.15;2.30;;;;;;;;;;7133327;27;20078;-77
2021/06/15 07:24:44;;;;;;;6.65;2.53;;;;;;;;;;7133582;27;20038;-79
2021/06/15 07:28:04;;;;;;;4.15;2.03;;;;;;;;;;7134504;27;20129;-77
2021/06/15 07:31:25;;;;;;;10.45;1.98;;;;;;;;;;7137530;27;20126;-79
2021/06/15 07:34:45;;;;;;;11.20;2.58;;;;;;;;;;7135868;27;20125;-77
2021/06/15 07:38:06;;;;;;;7.53;2.47;;;;;;;;;;7122274;27;20129;-78
2021/06/15 07:41:26;;;;;;;6.97;2.20;;;;;;;;;;7135595;27;20461;-77
2021/06/15 07:44:46;;;;;;;8.07;2.17;;;;;;;;;;7121293;27;20061;-77
2021/06/15 07:48:07;;;;;;;6.50;2.30;;;;;;;;;;7134866;27;20531;-77
2021/06/15 07:51:27;;;;;;;5.38;2.35;;;;;;;;;;7129581;27;20095;-79
2021/06/15 07:54:48;;;;;;;8.10;2.30;;;;;;;;;;7098464;27;20055;-78
2021/06/15 07:58:08;;;;;;;6.15;2.17;;;;;;;;;;7120567;27;20095;-79
2021/06/15 08:01:29;;;;;;;7.05;2.25;;;;;;;;;;7104739;27;20483;-79
2021/06/15 08:04:49;;;;;;;6.50;2.03;;;;;;;;;;7111361;27;20036;-79
2021/06/15 08:08:09;;;;;;;5.60;2.30;;;;;;;;;;7113956;27;20174;-79
2021/06/15 08:11:30;;;;;;;4.47;1.92;;;;;;;;;;7123176;27;20034;-79
2021/06/15 08:14:50;;;;;;;5.15;2.20;;;;;;;;;;7125318;27;20043;-78
2021/06/15 08:18:11;;;;;;;7.32;1.90;;;;;;;;;;7128344;27;20043;-79
2021/06/15 08:21:31;;;;;;;6.05;2.10;;;;;;;;;;7129731;27;20396;-78
2021/06/15 08:24:52;;;;;;;4.43;2.20;;;;;;;;;;7127516;27;20053;-78
2021/06/15 08:28:13;;;;;;;2.38;1.70;;;;;;;;;;7127119;27;20096;-79
2021/06/15 08:31:33;;;;;;;5.35;1.83;;;;;;;;;;7124964;27;20047;-85
2021/06/15 08:34:54;;;;;;;7.60;1.90;;;;;;;;;;7118676;27;20043;-78
2021/06/15 08:38:16;;;;;;;6.57;1.92;;;;;;;;;;7116505;27;20127;-78
2021/06/15 08:41:37;;;;;;;4.97;2.10;;;;;;;;;;7115961;27;21276;-79
2021/06/15 08:44:57;;;;;;;9.50;2.33;;;;;;;;;;7119436;27;20097;-82
2021/06/15 08:48:18;;;;;;;5.18;1.67;;;;;;;;;;7104749;27;20057;-78
2021/06/15 08:51:40;;;;;;;17.92;2.28;;;;;;;;;;7117519;27;20089;-78
2021/06/15 08:55:01;;;;;;;6.70;2.33;;;;;;;;;;7109289;27;20050;-78
2021/06/15 08:58:33;;;;;;;5.88;2.20;;;;;;;;;;7116816;27;20042;-78
2021/06/15 09:01:56;;;;;;;8.35;1.90;;;;;;;;;;7106437;27;20055;-78
2021/06/15 09:05:20;;;;;;;4.68;1.90;;;;;;;;;;7119148;27;20110;-78
2021/06/15 09:08:58;;;;;;;3.63;1.90;;;;;;;;;;7118024;27;20085;-78
2021/06/15 09:12:21;;;;;;;5.35;2.00;;;;;;;;;;7089818;27;20038;-79
2021/06/15 09:15:44;;;;;;;4.97;2.13;;;;;;;;;;7117558;27;20053;-79
2021/06/15 09:19:21;;;;;;;5.13;2.05;;;;;;;;;;7116932;27;20442;-78
2021/06/15 09:22:41;;;;;;;3.83;2.00;;;;;;;;;;7112045;27;20418;-77
2021/06/15 09:26:03;;;;;;;5.60;2.38;;;;;;;;;;7110062;27;20522;-76
2021/06/15 09:29:52;;;;;;;6.13;2.30;;;;;;;;;;7112763;27;20047;-78
2021/06/15 09:33:13;;;;;;;6.40;2.67;;;;;;;;;;7114223;27;20051;-79
2021/06/15 09:36:35;;;;;;;5.13;2.05;;;;;;;;;;7108042;27;20080;-78
2021/06/15 09:39:56;;;;;;;5.40;1.98;;;;;;;;;;7114926;27;20031;-79
2021/06/15 09:43:17;;;;;;;6.18;2.13;;;;;;;;;;7109631;27;20034;-78
2021/06/15 09:46:49;;;;;;;5.82;2.13;;;;;;;;;;7117004;27;20066;-79
2021/06/15 09:50:09;;;;;;;6.07;1.85;;;;;;;;;;7095462;27;20051;-77
2021/06/15 09:53:38;;;;;;;5.28;2.28;;;;;;;;;;7086508;27;20046;-77
2021/06/15 09:56:59;;;;;;;5.90;2.40;;;;;;;;;;7099452;27;20079;-77
2021/06/15 10:00:21;;;;;;;4.80;1.92;;;;;;;;;;7110297;27;20042;-78
2021/06/15 10:03:42;;;;;;;3.75;2.00;;;;;;;;;;7117620;27;20053;-79
2021/06/15 10:07:02;;;;;;;5.50;1.92;;;;;;;;;;7083427;27;20047;-77
2021/06/15 10:10:27;;;;;;;5.72;1.92;;;;;;;;;;7115332;27;20137;-78
2021/06/15 10:13:48;;;;;;;5.82;2.22;;;;;;;;;;7095802;27;20536;-77
2021/06/15 10:17:09;;;;;;;5.20;2.08;;;;;;;;;;7116225;27;20496;-77
2021/06/15 10:20:33;;;;;;;4.82;1.98;;;;;;;;;;7102764;27;20484;-78
2021/06/15 10:23:54;;;;;;;5.88;1.92;;;;;;;;;;7083454;27;20050;-78
2021/06/15 10:27:14;;;;;;;7.60;2.42;;;;;;;;;;7110602;27;20043;-77
2021/06/15 10:30:36;;;;;;;3.80;1.70;;;;;;;;;;7094166;27;20047;-76
2021/06/15 10:33:57;;;;;;;4.53;2.53;;;;;;;;;;7108032;27;20043;-79
2021/06/15 10:37:39;;;;;;;9.40;2.30;;;;;;;;;;7106815;27;20142;-78
2021/06/15 10:41:02;;;;;;;7.57;2.25;;;;;;;;;;7103406;27;20077;-76
2021/06/15 10:44:22;;;;;;;4.57;2.28;;;;;;;;;;7085519;27;20047;-76
2021/06/15 10:48:05;;;;;;;5.20;2.15;;;;;;;;;;7086249;27;20181;-76
2021/06/15 10:51:29;;;;;;;7.78;2.10;;;;;;;;;;7109040;27;20059;-77
2021/06/15 10:54:49;;;;;;;4.80;2.30;;;;;;;;;;7108181;27;20047;-77
2021/06/15 10:58:10;;;;;;;7.28;2.55;;;;;;;;;;7108415;27;20074;-77
2021/06/15 11:01:32;;;;;;;5.32;2.20;;;;;;;;;;7108113;27;20137;-76
2021/06/15 11:04:52;;;;;;;4.53;2.13;;;;;;;;;;7107197;27;20035;-76
2021/06/15 11:08:16;;;;;;;3.28;2.28;;;;;;;;;;7097907;27;20134;-78
2021/06/15 11:11:37;;;;;;;5.78;2.30;;;;;;;;;;7106618;27;20035;-79
2021/06/15 11:15:10;;;;;;;6.03;2.00;;;;;;;;;;7107373;27;20055;-77
2021/06/15 11:18:31;;;;;;;4.68;2.03;;;;;;;;;;7104805;27;20122;-78
2021/06/15 11:21:54;;;;;;;6.43;2.42;;;;;;;;;;7100548;27;20043;-77
2021/06/15 11:25:14;;;;;;;5.57;2.40;;;;;;;;;;7104596;27;20103;-78
2021/06/15 11:28:56;;;;;;;3.80;1.85;;;;;;;;;;7087195;27;20038;-77
2021/06/15 11:32:18;;;;;;;5.35;2.05;;;;;;;;;;7107786;27;20042;-78
2021/06/15 11:35:40;;;;;;;3.72;2.20;;;;;;;;;;7113293;27;20046;-78
2021/06/15 11:39:29;;;;;;;4.45;2.30;;;;;;;;;;7107490;27;20133;-78
2021/06/15 11:43:17;;;;;;;2.88;1.98;;;;;;;;;;7101001;27;20464;-78
2021/06/15 11:46:37;;;;;;;3.57;2.63;;;;;;;;;;7109826;27;20434;-80
2021/06/15 11:50:21;;;;;;;7.68;2.30;;;;;;;;;;7112158;27;20484;-79
2021/06/15 11:53:42;;;;;;;4.75;2.80;;;;;;;;;;7108669;27;20082;-78
2021/06/15 11:57:03;;;;;;;6.55;2.70;;;;;;;;;;7105088;27;20050;-78
2021/06/15 12:00:23;;;;;;;4.45;2.20;;;;;;;;;;7111841;27;20096;-78
2021/06/15 12:03:46;;;;;;;3.97;2.67;;;;;;;;;;7112361;27;20049;-78
2021/06/15 12:07:17;;;;;;;6.28;2.45;;;;;;;;;;7112056;27;20039;-78
2021/06/15 12:10:38;;;;;;;3.67;2.38;;;;;;;;;;7103359;27;20126;-77
2021/06/15 12:13:58;;;;;;;12.95;2.63;;;;;;;;;;7109264;27;20038;-77
2021/06/15 12:17:18;;;;;;;3.03;2.30;;;;;;;;;;7108516;27;20042;-79
2021/06/15 12:20:40;;;;;;;7.78;2.47;;;;;;;;;;7108906;27;20043;-81
2021/06/15 12:24:06;;;;;;;5.03;2.45;;;;;;;;;;7116067;27;20031;-80
2021/06/15 12:27:27;;;;;;;7.68;3.08;;;;;;;;;;7110080;27;20051;-80
2021/06/15 12:31:07;;;;;;;8.23;2.58;;;;;;;;;;7108281;27;20077;-80
2021/06/15 12:34:27;;;;;;;4.63;2.40;;;;;;;;;;7105833;27;20039;-81
2021/06/15 12:37:48;;;;;;;4.22;2.70;;;;;;;;;;7117895;27;20103;-81
2021/06/15 12:41:14;;;;;;;4.40;2.30;;;;;;;;;;7099272;27;20043;-79
2021/06/15 12:44:39;;;;;;;9.18;2.83;;;;;;;;;;7118946;27;20408;-80
2021/06/15 12:48:01;;;;;;;6.95;2.30;;;;;;;;;;7118108;27;20046;-79
2021/06/15 12:51:24;;;;;;;6.93;2.53;;;;;;;;;;7109804;27;20074;-81
2021/06/15 12:54:46;;;;;;;8.00;2.63;;;;;;;;;;7118191;27;20163;-81
2021/06/15 12:58:07;;;;;;;6.28;2.97;;;;;;;;;;7120019;27;20484;-79
2021/06/15 13:01:36;;;;;;;9.57;2.83;;;;;;;;;;7119781;27;20038;-82
2021/06/15 13:04:57;;;;;;;8.18;2.55;;;;;;;;;;7120479;27;20053;-81
2021/06/15 13:08:18;;;;;;;7.00;2.47;;;;;;;;;;7119694;27;20042;-80
2021/06/15 13:11:38;;;;;;;9.05;2.15;;;;;;;;;;7119499;27;20180;-81
2021/06/15 13:15:06;;;;;;;8.88;2.58;;;;;;;;;;7098168;27;20039;-79
2021/06/15 13:18:29;;;;;;;7.47;2.60;;;;;;;;;;7092268;27;20046;-81
2021/06/15 13:21:57;;;;;;;7.30;2.45;;;;;;;;;;7107905;27;20118;-82
2021/06/15 13:25:17;;;;;;;9.40;2.38;;;;;;;;;;7172228;22;20054;-82
2021/06/15 13:28:38;;;;;;;7.72;2.35;;;;;;;;;;7066719;28;20047;-83
2021/06/15 13:32:14;;;;;;;6.28;2.72;;;;;;;;;;7058709;28;20047;-85
2021/06/15 13:35:42;;;;;;;5.80;2.42;;;;;;;;;;7057025;28;20193;-85
2021/06/15 13:39:15;;;;;;;14.52;2.67;;;;;;;;;;7055925;28;20046;-84
2021/06/15 13:42:37;;;;;;;4.28;2.60;;;;;;;;;;7055429;28;20051;-82
2021/06/15 13:45:59;;;;;;;9.80;2.75;;;;;;;;;;7065569;28;20086;-82
2021/06/15 13:49:20;;;;;;;7.10;2.40;;;;;;;;;;7059962;28;20054;-82
2021/06/15 13:52:40;;;;;;;3.03;2.03;;;;;;;;;;7058114;28;20032;-81
2021/06/15 13:56:01;;;;;;;7.35;2.67;;;;;;;;;;7069592;27;20503;-81
2021/06/15 13:59:21;;;;;;;10.95;2.35;;;;;;;;;;7073182;28;20101;-82
2021/06/15 14:02:42;;;;;;;3.40;1.92;;;;;;;;;;7068630;28;20039;-80
2021/06/15 14:06:03;;;;;;;4.60;2.28;;;;;;;;;;7049345;28;20039;-82
2021/06/15 14:09:23;;;;;;;5.13;2.13;;;;;;;;;;7071875;28;20119;-82
2021/06/15 14:12:47;;;;;;;8.30;2.60;;;;;;;;;;7075161;28;20093;-81
2021/06/15 14:16:07;;;;;;;4.95;2.78;;;;;;;;;;7073790;28;20048;-82
2021/06/15 14:19:27;;;;;;;2.60;2.03;;;;;;;;;;7077416;28;20050;-79
2021/06/15 14:22:50;;;;;;;3.35;1.90;;;;;;;;;;7075609;28;20047;-80
2021/06/15 14:26:10;;;;;;;5.47;2.60;;;;;;;;;;7076567;28;20104;-79
2021/06/15 14:29:31;;;;;;;3.08;2.08;;;;;;;;;;7042622;28;20075;-81
2021/06/15 14:32:53;;;;;;;4.30;2.17;;;;;;;;;;7052173;28;20409;-81
2021/06/15 14:36:13;;;;;;;9.27;2.38;;;;;;;;;;7048731;28;20096;-82
2021/06/15 14:39:34;;;;;;;5.75;3.05;;;;;;;;;;7050681;28;20126;-80
2021/06/15 14:42:54;;;;;;;5.70;2.45;;;;;;;;;;7041979;28;20051;-82
2021/06/15 14:46:14;;;;;;;4.25;2.63;;;;;;;;;;7051040;28;20138;-81
2021/06/15 14:49:35;;;;;;;10.13;2.95;;;;;;;;;;7051174;28;20512;-81
2021/06/15 14:52:56;;;;;;;10.45;3.30;;;;;;;;;;7050485;28;20056;-80
2021/06/15 14:56:17;;;;;;;8.48;3.42;;;;;;;;;;7049712;28;20122;-80
2021/06/15 14:59:37;;;;;;;8.23;2.95;;;;;;;;;;7051001;28;20051;-80
2021/06/15 15:02:58;;;;;;;5.43;3.38;;;;;;;;;;7043558;28;20047;-80
2021/06/15 15:06:18;;;;;;;6.03;2.70;;;;;;;;;;7045843;28;20065;-80
2021/06/15 15:09:39;;;;;;;4.68;2.90;;;;;;;;;;7056624;28;20074;-81
2021/06/15 15:12:59;;;;;;;9.07;3.28;;;;;;;;;;7071497;28;20046;-78
2021/06/15 15:16:20;;;;;;;10.13;3.28;;;;;;;;;;7056569;28;20048;-80
2021/06/15 15:19:41;;;;;;;5.43;3.00;;;;;;;;;;7057050;28;20075;-80
2021/06/15 15:23:03;;;;;;;4.50;3.10;;;;;;;;;;7056229;28;20063;-79
2021/06/15 15:26:25;;;;;;;7.40;3.17;;;;;;;;;;7056338;28;20051;-79
2021/06/15 15:29:46;;;;;;;4.95;2.85;;;;;;;;;;7056143;28;20042;-78
2021/06/15 15:33:06;;;;;;;7.32;3.35;;;;;;;;;;7056436;28;20047;-79
2021/06/15 15:36:27;;;;;;;6.82;3.03;;;;;;;;;;7070086;28;20048;-81
2021/06/15 15:39:49;;;;;;;8.15;3.60;;;;;;;;;;7056130;28;20124;-81
2021/06/15 15:43:10;;;;;;;5.95;3.33;;;;;;;;;;7055627;28;20036;-79
2021/06/15 15:46:31;;;;;;;12.02;3.03;;;;;;;;;;7056054;28;20392;-79
2021/06/15 15:49:51;;;;;;;9.80;3.05;;;;;;;;;;7055322;28;20507;-79
2021/06/15 15:53:12;;;;;;;4.90;3.00;;;;;;;;;;7055714;28;20130;-79
2021/06/15 15:56:32;;;;;;;6.10;3.33;;;;;;;;;;7055566;28;20051;-79
2021/06/15 15:59:53;;;;;;;4.32;2.53;;;;;;;;;;7063317;28;20424;-80
2021/06/15 16:03:13;;;;;;;6.65;2.80;;;;;;;;;;7055650;28;20124;-80
2021/06/15 16:06:33;;;;;;;5.68;3.00;;;;;;;;;;7055750;28;20048;-80
2021/06/15 16:09:54;;;;;;;6.32;2.63;;;;;;;;;;7055740;28;20473;-79
2021/06/15 16:13:15;;;;;;;12.93;2.92;;;;;;;;;;7056915;28;20087;-80
2021/06/15 16:16:35;;;;;;;8.00;2.90;;;;;;;;;;7066679;28;20046;-79
2021/06/15 16:19:55;;;;;;;10.23;3.05;;;;;;;;;;7058717;27;20691;-78
2021/06/15 16:23:16;;;;;;;7.15;2.65;;;;;;;;;;7060793;28;20127;-80
2021/06/15 16:26:37;;;;;;;5.97;2.95;;;;;;;;;;7064055;28;20096;-81
2021/06/15 16:29:58;;;;;;;6.47;2.75;;;;;;;;;;7061888;28;20055;-80
2021/06/15 16:33:18;;;;;;;4.85;2.70;;;;;;;;;;7034199;28;20048;-80
2021/06/15 16:36:39;;;;;;;4.70;3.00;;;;;;;;;;7054733;28;20100;-80
2021/06/15 16:39:59;;;;;;;5.85;2.60;;;;;;;;;;7064474;28;20043;-80
2021/06/15 16:43:20;;;;;;;6.05;2.63;;;;;;;;;;7054623;28;20114;-80
2021/06/15 16:46:40;;;;;;;4.63;2.30;;;;;;;;;;7054533;28;20107;-82
2021/06/15 16:50:01;;;;;;;6.40;2.60;;;;;;;;;;7040776;28;20481;-79
2021/06/15 16:53:21;;;;;;;4.40;2.78;;;;;;;;;;7054571;28;20074;-79
2021/06/15 16:56:42;;;;;;;5.60;2.58;;;;;;;;;;7069024;28;20560;-79
2021/06/15 17:00:04;;;;;;;9.38;2.55;;;;;;;;;;7054078;28;20076;-80
2021/06/15 17:03:24;;;;;;;8.25;2.58;;;;;;;;;;7052824;28;20052;-84
2021/06/15 17:06:45;;;;;;;8.10;2.40;;;;;;;;;;7026444;28;20055;-86
2021/06/15 17:10:06;;;;;;;18.77;3.13;;;;;;;;;;7034143;28;20054;-86
2021/06/15 17:13:27;;;;;;;4.70;2.78;;;;;;;;;;7035346;28;20166;-86
2021/06/15 17:16:47;;;;;;;7.75;2.53;;;;;;;;;;7023815;28;20446;-86
2021/06/15 17:20:09;;;;;;;5.40;2.53;;;;;;;;;;7023758;28;20039;-86
2021/06/15 17:23:29;;;;;;;14.25;2.53;;;;;;;;;;7023396;28;20051;-87
2021/06/15 17:26:50;;;;;;;5.55;2.40;;;;;;;;;;7041705;28;20134;-86
2021/06/15 17:30:14;;;;;;;10.40;2.80;;;;;;;;;;7041319;28;20040;-86
2021/06/15 17:33:34;;;;;;;11.57;2.60;;;;;;;;;;7037611;28;21027;-87
2021/06/15 17:36:55;;;;;;;7.28;2.60;;;;;;;;;;7029800;28;20051;-91
2021/06/15 17:40:23;;;;;;;7.22;2.88;;;;;;;;;;7034470;28;20043;-88
2021/06/15 17:43:44;;;;;;;11.70;2.92;;;;;;;;;;7059683;28;20077;-87
2021/06/15 17:47:05;;;;;;;7.90;2.78;;;;;;;;;;7052531;28;20054;-87
2021/06/15 17:50:26;;;;;;;11.45;3.20;;;;;;;;;;7049201;28;20498;-87
2021/06/15 17:53:47;;;;;;;4.18;2.70;;;;;;;;;;7041502;28;20046;-87
2021/06/15 17:57:09;;;;;;;10.15;2.28;;;;;;;;;;7052563;28;20048;-87
2021/06/15 18:00:32;;;;;;;5.13;2.80;;;;;;;;;;7049537;28;20048;-87
2021/06/15 18:03:57;;;;;;;9.68;3.13;;;;;;;;;;7052174;28;20044;-87
2021/06/15 18:07:25;;;;;;;12.40;2.72;;;;;;;;;;7039231;28;20071;-86
2021/06/15 18:10:46;;;;;;;7.70;3.13;;;;;;;;;;7050951;28;20054;-87
2021/06/15 18:14:07;;;;;;;12.38;2.92;;;;;;;;;;7031666;28;20059;-88
2021/06/15 18:17:30;;;;;;;8.23;2.55;;;;;;;;;;7028775;28;20047;-85
2021/06/15 18:20:50;;;;;;;15.13;2.85;;;;;;;;;;7041281;28;20122;-88
2021/06/15 18:24:11;;;;;;;16.52;3.42;;;;;;;;;;7047202;28;20101;-87
2021/06/15 18:27:32;;;;;;;9.30;3.15;;;;;;;;;;7052094;28;20043;-87
2021/06/15 18:30:52;;;;;;;6.22;2.53;;;;;;;;;;7043696;28;20510;-87
2021/06/15 18:34:13;;;;;;;8.23;3.10;;;;;;;;;;7032544;28;20082;-87
2021/06/15 18:37:33;;;;;;;5.72;2.22;;;;;;;;;;7050713;28;20542;-87
2021/06/15 18:40:54;;;;;;;5.55;2.67;;;;;;;;;;7051762;28;20055;-87
2021/06/15 18:44:14;;;;;;;7.07;2.40;;;;;;;;;;7051815;28;20485;-88
2021/06/15 18:47:35;;;;;;;5.95;2.75;;;;;;;;;;7051313;28;20082;-85
2021/06/15 18:50:57;;;;;;;7.03;3.00;;;;;;;;;;7055105;28;20050;-85
2021/06/15 18:54:17;;;;;;;11.93;3.47;;;;;;;;;;7058752;28;20476;-86
2021/06/15 18:57:38;;;;;;;9.88;3.63;;;;;;;;;;7058983;28;20044;-85
2021/06/15 19:00:59;;;;;;;11.35;2.83;;;;;;;;;;7052355;28;20051;-85
2021/06/15 19:04:19;;;;;;;8.18;2.90;;;;;;;;;;7069571;28;20403;-85
2021/06/15 19:07:40;;;;;;;15.82;3.10;;;;;;;;;;7057100;28;20420;-85
2021/06/15 19:11:00;;;;;;;10.77;3.05;;;;;;;;;;7029442;28;20075;-86
2021/06/15 19:14:20;;;;;;;7.53;3.35;;;;;;;;;;7056022;28;20059;-86
2021/06/15 19:17:41;;;;;;;10.33;2.60;;;;;;;;;;7060107;28;20489;-86
2021/06/15 19:21:01;;;;;;;8.65;3.15;;;;;;;;;;7046773;28;20039;-85
2021/06/15 19:24:22;;;;;;;6.72;2.90;;;;;;;;;;7075345;28;20042;-86
2021/06/15 19:27:42;;;;;;;5.78;2.85;;;;;;;;;;7039078;28;20040;-86
2021/06/15 19:31:03;;;;;;;13.20;3.30;;;;;;;;;;7063905;28;20063;-85
2021/06/15 19:34:23;;;;;;;11.65;2.83;;;;;;;;;;7063598;28;20044;-86
2021/06/15 19:37:43;;;;;;;8.52;3.05;;;;;;;;;;7049942;28;20181;-85
2021/06/15 19:41:05;;;;;;;8.73;2.67;;;;;;;;;;7055894;28;20043;-85
2021/06/15 19:44:25;;;;;;;6.53;3.08;;;;;;;;;;7060789;28;20089;-85
2021/06/15 19:47:47;;;;;;;5.35;3.10;;;;;;;;;;7050097;28;20123;-86
2021/06/15 19:51:10;;;;;;;16.02;3.35;;;;;;;;;;7027177;28;20078;-86
2021/06/15 19:54:30;;;;;;;8.60;3.08;;;;;;;;;;7045080;28;20054;-85
2021/06/15 19:57:51;;;;;;;8.57;2.92;;;;;;;;;;7047374;28;20432;-86
2021/06/15 20:01:12;;;;;;;7.35;3.13;;;;;;;;;;7046165;28;20055;-82
2021/06/15 20:04:33;;;;;;;11.88;2.85;;;;;;;;;;7055204;28;20389;-82
2021/06/15 20:07:53;;;;;;;8.55;3.53;;;;;;;;;;7054359;28;20529;-82
2021/06/15 20:11:14;;;;;;;10.85;2.83;;;;;;;;;;7047927;28;20036;-81
2021/06/15 20:14:34;;;;;;;9.40;3.63;;;;;;;;;;7055198;28;20040;-81
2021/06/15 20:17:55;;;;;;;10.43;2.90;;;;;;;;;;7054002;28;20051;-82
2021/06/15 20:21:15;;;;;;;7.22;2.60;;;;;;;;;;7063546;28;20123;-82
2021/06/15 20:24:36;;;;;;;8.18;3.13;;;;;;;;;;7049959;28;20043;-82
2021/06/15 20:27:56;;;;;;;7.30;2.75;;;;;;;;;;7051225;28;20040;-82
2021/06/15 20:31:18;;;;;;;9.15;3.10;;;;;;;;;;7055262;28;20093;-82
2021/06/15 20:34:38;;;;;;;6.25;2.75;;;;;;;;;;7052021;28;20507;-84
2021/06/15 20:37:59;;;;;;;6.43;3.13;;;;;;;;;;7059502;28;20055;-82
2021/06/15 20:41:20;;;;;;;8.77;3.05;;;;;;;;;;7061431;28;20044;-81
2021/06/15 20:44:40;;;;;;;7.68;3.15;;;;;;;;;;7056655;28;20564;-82
2021/06/15 20:48:01;;;;;;;8.55;2.97;;;;;;;;;;7059083;28;20123;-82
2021/06/15 20:51:21;;;;;;;8.88;3.15;;;;;;;;;;7065094;28;20544;-82
2021/06/15 20:54:41;;;;;;;7.53;3.00;;;;;;;;;;7046496;28;20070;-82
2021/06/15 20:58:02;;;;;;;5.28;2.75;;;;;;;;;;7066519;28;20047;-81
2021/06/15 21:01:22;;;;;;;5.28;3.03;;;;;;;;;;7059882;28;20042;-82
2021/06/15 21:04:43;;;;;;;6.25;2.85;;;;;;;;;;7066629;27;20099;-82
2021/06/15 21:08:03;;;;;;;6.43;3.00;;;;;;;;;;7066820;28;20131;-82
2021/06/15 21:11:24;;;;;;;8.13;2.97;;;;;;;;;;7055068;28;20104;-80
2021/06/15 21:14:45;;;;;;;9.02;2.92;;;;;;;;;;7058322;28;20055;-81
2021/06/15 21:18:05;;;;;;;8.27;2.70;;;;;;;;;;7061988;28;20154;-81
2021/06/15 21:21:27;;;;;;;5.32;2.88;;;;;;;;;;7054810;28;20464;-83
2021/06/15 21:24:48;;;;;;;10.07;3.17;;;;;;;;;;7060558;28;20138;-81
2021/06/15 21:28:08;;;;;;;13.20;2.83;;;;;;;;;;7069422;28;20039;-82
2021/06/15 21:31:28;;;;;;;17.63;5.13;;;;;;;;;;7059188;28;20097;-81
2021/06/15 21:34:49;;;;;;;21.63;4.22;;;;;;;;;;7065273;28;20049;-81
2021/06/15 21:38:09;;;;;;;11.65;3.63;;;;;;;;;;7066665;28;20126;-81
2021/06/15 21:41:30;;;;;;;13.85;2.95;;;;;;;;;;7073914;28;20079;-81
2021/06/15 21:44:50;;;;;;;12.20;3.40;;;;;;;;;;7049429;28;20055;-81
2021/06/15 21:48:11;;;;;;;6.50;2.72;;;;;;;;;;7055241;28;20620;-80
2021/06/15 21:51:31;;;;;;;5.28;2.95;;;;;;;;;;7076418;28;20054;-79
2021/06/15 21:54:52;;;;;;;13.93;3.03;;;;;;;;;;7066030;28;20512;-80
2021/06/15 21:58:12;;;;;;;12.25;3.03;;;;;;;;;;7055020;28;20469;-81
2021/06/15 22:01:33;;;;;;;9.07;3.17;;;;;;;;;;7057876;28;20607;-80
2021/06/15 22:04:54;;;;;;;8.80;2.85;;;;;;;;;;7063878;28;20043;-81
2021/06/15 22:08:14;;;;;;;11.27;2.83;;;;;;;;;;7059005;28;20043;-80
2021/06/15 22:11:35;;;;;;;5.65;2.60;;;;;;;;;;7055207;28;20047;-80
2021/06/15 22:14:55;;;;;;;21.10;3.40;;;;;;;;;;7047528;28;20107;-81
2021/06/15 22:18:16;;;;;;;8.23;3.28;;;;;;;;;;7043381;28;20082;-81
2021/06/15 22:21:37;;;;;;;7.60;3.03;;;;;;;;;;7049529;28;20396;-80
2021/06/15 22:24:57;;;;;;;9.38;3.20;;;;;;;;;;7048304;28;20055;-81
2021/06/15 22:28:18;;;;;;;10.13;3.60;;;;;;;;;;7043938;28;20053;-80
2021/06/15 22:31:40;;;;;;;9.05;2.50;;;;;;;;;;7076385;28;20496;-80
2021/06/15 22:35:00;;;;;;;5.00;3.20;;;;;;;;;;7073522;28;20051;-81
2021/06/15 22:38:21;;;;;;;7.70;3.40;;;;;;;;;;7059007;28;20397;-81
2021/06/15 22:41:42;;;;;;;9.75;3.38;;;;;;;;;;7051766;28;20036;-81
2021/06/15 22:45:06;;;;;;;8.38;3.30;;;;;;;;;;7037281;28;20075;-81
2021/06/15 22:48:26;;;;;;;9.15;3.38;;;;;;;;;;7029849;28;20073;-81
2021/06/15 22:51:47;;;;;;;7.47;2.97;;;;;;;;;;7051876;28;20175;-80
2021/06/15 22:55:10;;;;;;;9.05;3.08;;;;;;;;;;7065234;28;20385;-81
2021/06/15 22:58:31;;;;;;;7.00;3.03;;;;;;;;;;7037588;28;20139;-80
2021/06/15 23:01:51;;;;;;;6.95;3.17;;;;;;;;;;7052128;28;20056;-81
2021/06/15 23:05:13;;;;;;;7.47;3.25;;;;;;;;;;7050645;28;20039;-81
2021/06/15 23:08:33;;;;;;;8.13;3.03;;;;;;;;;;7051998;28;20048;-80
2021/06/15 23:11:54;;;;;;;6.28;2.80;;;;;;;;;;7051378;28;20059;-80
2021/06/15 23:15:15;;;;;;;8.45;2.97;;;;;;;;;;7050969;28;20101;-81
2021/06/15 23:18:35;;;;;;;6.68;3.00;;;;;;;;;;7040507;28;20421;-80
2021/06/15 23:21:56;;;;;;;7.25;3.20;;;;;;;;;;7048545;28;20071;-80
2021/06/15 23:25:24;;;;;;;5.97;3.42;;;;;;;;;;7050559;28;20050;-81
2021/06/15 23:28:45;;;;;;;5.97;3.40;;;;;;;;;;7053220;28;20131;-80
2021/06/15 23:32:06;;;;;;;6.18;2.67;;;;;;;;;;7056325;28;20043;-81
2021/06/15 23:35:26;;;;;;;5.22;2.80;;;;;;;;;;7055480;28;20047;-81
2021/06/15 23:38:47;;;;;;;7.72;2.95;;;;;;;;;;7056376;28;20048;-80
2021/06/15 23:42:07;;;;;;;6.18;2.85;;;;;;;;;;7054447;28;20048;-80
2021/06/15 23:45:29;;;;;;;7.57;2.60;;;;;;;;;;7070349;28;20096;-81
2021/06/15 23:48:50;;;;;;;7.93;3.35;;;;;;;;;;7055849;28;20043;-81
2021/06/15 23:52:10;;;;;;;3.67;2.45;;;;;;;;;;7055610;28;20112;-81
2021/06/15 23:55:31;;;;;;;6.72;2.70;;;;;;;;;;7050808;28;20068;-81
2021/06/15 23:58:51;;;;;;;5.50;2.70;;;;;;;;;;7055723;28;20453;-81
